Patchogue, New York
Current Conditions -  °F | °C
As of 7:56 PM on Friday 31 Oct 2014 (Local Time) from KISP Reporting Station
Light Rain Light Rain  
Wind Chill: 53°   Ceiling: 5000
Heat Index: 53°   Visibility: 10mi
Dew Point: 45°   Wind: 17mph
Humidity: 74%   Direction: 40°NE
Pressure: 29.89"   Gusts: 23mph
Location:  40.76°N, 73.01°W
Report Text: KISP 312356Z 04015G20KT 10SM -RA FEW018 SCT028 OVC050 12/07 A2989 RMK AO2 RAB51 SLP121 P0000 60000 T01170072 10128 20117 53000
Loading
Personal Weather Stations






























Interactive Weather Map
Tropical Storm Tracking
New forecast layout! Learn more

10-Day Weather Forecast

Advertisements
Track Severe Weather on mobile